Time;durP1;ratioP1;P1;durP2;ratioP2;P2;SDS_P1;SDS_P2;PMS_P1;PMS_P2;Temp;Humidity;BMP_temperature;BMP_pressure;BME280_temperature;BME280_humidity;BME280_pressure;Samples;Min_cycle;Max_cycle;Signal;HPM_P1;HPM_P2
2023/04/07 00:01:11;;;;;;;6.85;6.25;;;;;;;7.26;100.00;98513.47;4161807;28;20196;-47
2023/04/07 00:03:13;;;;;;;6.22;5.72;;;;;;;7.24;100.00;98521.88;4163471;28;20251;-48
2023/04/07 00:05:15;;;;;;;4.32;4.03;;;;;;;7.24;100.00;98510.16;4203629;28;20217;-47
2023/04/07 00:07:19;;;;;;;5.10;4.70;;;;;;;7.32;100.00;98518.00;4182241;28;20228;-47
2023/04/07 00:09:21;;;;;;;4.80;4.50;;;;;;;7.37;100.00;98515.44;4169485;28;20585;-47
2023/04/07 00:11:23;;;;;;;5.57;5.18;;;;;;;7.41;100.00;98516.66;4169706;28;20227;-47
2023/04/07 00:13:25;;;;;;;5.57;5.00;;;;;;;7.38;100.00;98511.66;4172421;28;20200;-47
2023/04/07 00:15:27;;;;;;;5.55;4.93;;;;;;;7.24;100.00;98511.00;4204878;28;20244;-47
2023/04/07 00:17:29;;;;;;;5.43;4.97;;;;;;;7.18;100.00;98508.34;4170953;28;20263;-48
2023/04/07 00:19:32;;;;;;;4.55;4.25;;;;;;;7.15;100.00;98511.53;4171202;28;20403;-47
2023/04/07 00:21:34;;;;;;;6.15;5.65;;;;;;;7.19;100.00;98496.41;4186529;28;20196;-47
2023/04/07 00:23:36;;;;;;;5.40;5.00;;;;;;;7.09;100.00;98502.38;4168566;28;20201;-47
2023/04/07 00:25:38;;;;;;;6.40;5.43;;;;;;;7.04;100.00;98495.97;4170731;28;20512;-47
2023/04/07 00:27:39;;;;;;;5.57;5.07;;;;;;;7.23;100.00;98497.63;4169363;28;20239;-48
2023/04/07 00:29:42;;;;;;;5.68;5.28;;;;;;;7.16;100.00;98494.97;4170148;28;20235;-47
2023/04/07 00:31:44;;;;;;;6.72;5.93;;;;;;;7.25;100.00;98490.03;4168562;28;20229;-47
2023/04/07 00:33:47;;;;;;;5.90;5.00;;;;;;;7.18;100.00;98492.03;4178196;28;20223;-47
2023/04/07 00:35:50;;;;;;;4.88;4.53;;;;;;;7.21;100.00;98488.88;4161935;28;20208;-47
2023/04/07 00:37:52;;;;;;;5.07;4.60;;;;;;;7.18;100.00;98484.72;4172726;28;20277;-47
2023/04/07 00:39:55;;;;;;;5.82;5.40;;;;;;;7.16;100.00;98491.44;4161177;28;20204;-47
2023/04/07 00:41:56;;;;;;;5.60;5.20;;;;;;;7.17;100.00;98476.75;4171934;28;20232;-47
2023/04/07 00:43:58;;;;;;;4.50;4.20;;;;;;;7.13;100.00;98475.56;4157961;28;20233;-47
2023/04/07 00:46:00;;;;;;;5.13;4.72;;;;;;;7.12;100.00;98479.34;4172568;28;20263;-47
2023/04/07 00:48:02;;;;;;;5.85;5.35;;;;;;;7.17;100.00;98476.75;4171585;28;20285;-48
2023/04/07 00:50:04;;;;;;;5.47;4.97;;;;;;;7.18;100.00;98472.97;4168608;28;20303;-48
2023/04/07 00:52:07;;;;;;;5.05;4.65;;;;;;;7.20;100.00;98462.69;4163627;28;20208;-47
2023/04/07 00:54:09;;;;;;;6.05;5.20;;;;;;;7.19;100.00;98463.75;4172053;28;20240;-47
2023/04/07 00:56:12;;;;;;;5.13;4.72;;;;;;;7.07;100.00;98454.69;4174789;28;20260;-47
2023/04/07 00:58:13;;;;;;;6.38;5.68;;;;;;;6.92;100.00;98451.56;4171212;28;20303;-46
2023/04/07 01:00:15;;;;;;;6.18;5.32;;;;;;;7.02;100.00;98454.56;4171292;28;20243;-47
2023/04/07 01:02:37;;;;;;;5.47;4.97;;;;;;;7.00;100.00;98456.69;4172226;28;20303;-47
2023/04/07 01:08:20;;;;;;;4.72;4.32;;;;;;;7.05;100.00;98448.66;4168185;28;20644;-47
2023/04/07 01:10:52;;;;;;;4.82;4.22;;;;;;;7.03;100.00;98442.63;4169556;28;20212;-47
2023/04/07 01:13:02;;;;;;;4.22;3.83;;;;;;;7.20;100.00;98440.91;4172180;28;20240;-47
2023/04/07 01:15:08;;;;;;;6.97;5.22;;;;;;;6.89;100.00;98436.53;4189662;28;20207;-47
2023/04/07 01:17:17;;;;;;;5.57;4.93;;;;;;;6.85;100.00;98437.22;4169882;28;20328;-47
2023/04/07 01:19:41;;;;;;;4.70;4.40;;;;;;;6.99;100.00;98441.41;4172357;28;20212;-47
2023/04/07 01:21:43;;;;;;;6.00;5.28;;;;;;;6.81;100.00;98439.56;4160628;28;20260;-47
2023/04/07 01:24:03;;;;;;;4.32;4.03;;;;;;;6.80;100.00;98431.63;4176003;28;20208;-47
2023/04/07 01:26:29;;;;;;;5.60;5.20;;;;;;;6.78;100.00;98439.19;4170258;28;20274;-47
2023/04/07 01:28:59;;;;;;;5.35;4.95;;;;;;;6.80;100.00;98440.63;4169989;28;20224;-47
2023/04/07 01:31:01;;;;;;;5.55;5.15;;;;;;;6.60;100.00;98437.31;4171243;28;20698;-47
2023/04/07 01:33:03;;;;;;;5.40;5.10;;;;;;;6.52;100.00;98434.91;4172708;28;20307;-47
2023/04/07 01:35:09;;;;;;;5.63;5.22;;;;;;;6.55;100.00;98439.88;4177412;28;20431;-47
2023/04/07 01:37:10;;;;;;;5.93;5.53;;;;;;;6.54;100.00;98430.06;4201197;28;20807;-47
2023/04/07 01:39:12;;;;;;;5.78;5.30;;;;;;;6.44;100.00;98427.06;4168693;28;20714;-47
2023/04/07 01:41:14;;;;;;;5.40;4.95;;;;;;;6.51;100.00;98426.97;4177934;28;20291;-47
2023/04/07 01:43:17;;;;;;;6.95;6.32;;;;;;;6.40;100.00;98430.41;4170530;28;20258;-47
2023/04/07 01:45:19;;;;;;;5.80;5.40;;;;;;;6.59;100.00;98426.66;4170378;28;20254;-48
2023/04/07 01:47:21;;;;;;;6.03;5.53;;;;;;;6.53;100.00;98425.69;4170330;28;20256;-47
2023/04/07 01:49:24;;;;;;;6.82;6.32;;;;;;;6.39;100.00;98423.31;4174790;28;20935;-47
2023/04/07 01:51:27;;;;;;;6.03;5.53;;;;;;;6.43;100.00;98432.69;4188046;28;20306;-48
2023/04/07 01:53:29;;;;;;;5.25;4.85;;;;;;;6.33;100.00;98424.22;4178184;28;20203;-47
2023/04/07 01:55:31;;;;;;;6.68;6.18;;;;;;;6.33;100.00;98425.06;4178648;28;20697;-47
2023/04/07 01:57:33;;;;;;;5.80;5.30;;;;;;;6.37;100.00;98425.44;4188599;28;20258;-47
2023/04/07 01:59:35;;;;;;;6.22;5.72;;;;;;;6.47;100.00;98431.19;4170446;28;20702;-47
2023/04/07 02:01:37;;;;;;;6.30;5.80;;;;;;;6.53;100.00;98424.84;4202956;28;20206;-47
2023/04/07 02:03:43;;;;;;;5.05;4.65;;;;;;;6.60;100.00;98414.72;4172040;28;20661;-48
2023/04/07 02:05:47;;;;;;;6.97;6.32;;;;;;;6.50;100.00;98420.69;4171719;28;20311;-47
2023/04/07 02:07:53;;;;;;;5.70;5.18;;;;;;;6.56;100.00;98421.69;4173545;28;20216;-47
2023/04/07 02:09:57;;;;;;;5.32;4.93;;;;;;;6.39;100.00;98424.16;4171124;28;20324;-52
2023/04/07 02:12:01;;;;;;;5.80;5.18;;;;;;;6.58;100.00;98420.41;4174652;28;20878;-47
2023/04/07 02:14:03;;;;;;;6.35;5.85;;;;;;;6.35;100.00;98411.25;4168466;28;20250;-47
2023/04/07 02:16:09;;;;;;;5.95;5.55;;;;;;;6.36;100.00;98407.50;4175551;28;20235;-48
2023/04/07 02:18:12;;;;;;;5.43;5.03;;;;;;;6.43;100.00;98405.53;4178045;28;20208;-47
2023/04/07 02:20:15;;;;;;;6.63;6.00;;;;;;;6.30;100.00;98402.97;4170473;28;20209;-47
2023/04/07 02:22:17;;;;;;;6.10;5.60;;;;;;;6.28;100.00;98399.66;4167605;28;20204;-48
2023/04/07 02:24:20;;;;;;;6.47;5.97;;;;;;;6.30;100.00;98398.34;4176714;28;20261;-48
2023/04/07 02:26:22;;;;;;;6.80;6.20;;;;;;;6.31;100.00;98401.91;4153833;28;20705;-47
2023/04/07 02:28:24;;;;;;;6.03;5.43;;;;;;;6.33;100.00;98408.78;4153393;28;20300;-47
2023/04/07 02:30:27;;;;;;;5.68;5.18;;;;;;;6.38;100.00;98406.22;4160398;28;20212;-47
2023/04/07 02:32:29;;;;;;;6.22;5.72;;;;;;;6.40;100.00;98409.53;4172129;28;20231;-47
2023/04/07 02:34:31;;;;;;;5.95;5.28;;;;;;;6.39;100.00;98401.59;4170188;28;20566;-47
2023/04/07 02:36:33;;;;;;;6.45;5.95;;;;;;;6.41;100.00;98402.19;4161283;28;20279;-47
2023/04/07 02:38:34;;;;;;;6.03;5.50;;;;;;;6.41;100.00;98407.63;4171032;28;20573;-47
2023/04/07 02:40:36;;;;;;;4.45;4.15;;;;;;;6.44;100.00;98402.59;4170885;28;20213;-47
2023/04/07 02:42:39;;;;;;;5.93;5.30;;;;;;;6.39;100.00;98401.59;4170865;28;20680;-48
2023/04/07 02:44:40;;;;;;;5.60;5.18;;;;;;;6.40;100.00;98398.66;4167360;28;20292;-47
2023/04/07 02:46:42;;;;;;;4.78;4.43;;;;;;;6.50;100.00;98403.56;4167324;28;20224;-47
2023/04/07 02:48:43;;;;;;;5.88;5.35;;;;;;;6.50;100.00;98392.69;4176872;28;20211;-47
2023/04/07 02:50:45;;;;;;;4.95;4.55;;;;;;;6.42;100.00;98390.28;4160125;28;20291;-47
2023/04/07 02:52:47;;;;;;;4.88;4.57;;;;;;;6.28;100.00;98396.94;4160971;28;20302;-47
2023/04/07 02:54:49;;;;;;;5.70;5.20;;;;;;;6.24;100.00;98393.78;4191887;28;20607;-47
2023/04/07 02:56:50;;;;;;;5.75;5.35;;;;;;;6.04;100.00;98398.59;4168909;28;20654;-47
2023/04/07 02:58:52;;;;;;;6.35;5.75;;;;;;;5.98;100.00;98398.69;4169948;28;20231;-47
2023/04/07 03:00:54;;;;;;;5.32;4.93;;;;;;;5.99;100.00;98397.63;4160361;28;20250;-47
2023/04/07 03:02:56;;;;;;;5.15;4.68;;;;;;;6.01;100.00;98393.63;4175674;28;20208;-47
2023/04/07 03:04:58;;;;;;;4.55;4.25;;;;;;;6.02;100.00;98405.34;4186775;28;20208;-47
2023/04/07 03:07:00;;;;;;;4.78;4.47;;;;;;;6.04;100.00;98408.66;4168869;28;20236;-47
2023/04/07 03:09:02;;;;;;;6.10;5.40;;;;;;;6.10;100.00;98405.06;4175335;28;20208;-47
2023/04/07 03:11:03;;;;;;;5.85;5.43;;;;;;;6.10;100.00;98405.06;4167621;28;20237;-47
2023/04/07 03:13:07;;;;;;;5.40;5.00;;;;;;;6.17;100.00;98403.09;4177531;28;20665;-47
2023/04/07 03:15:09;;;;;;;5.63;5.13;;;;;;;6.15;100.00;98400.59;4186800;28;20787;-47
2023/04/07 03:17:11;;;;;;;6.30;5.28;;;;;;;6.18;100.00;98404.75;4169558;28;20746;-47
2023/04/07 03:19:13;;;;;;;5.70;5.30;;;;;;;6.15;100.00;98399.78;4187113;28;20282;-47
2023/04/07 03:21:14;;;;;;;5.95;5.47;;;;;;;6.17;100.00;98397.66;4169365;28;20615;-47
2023/04/07 03:23:16;;;;;;;6.28;5.25;;;;;;;6.07;100.00;98391.91;4170884;28;20295;-47
2023/04/07 03:25:18;;;;;;;6.25;5.80;;;;;;;6.07;100.00;98397.34;4176333;28;20291;-47
2023/04/07 03:27:20;;;;;;;6.20;5.70;;;;;;;5.98;100.00;98387.81;4168831;28;20282;-47
2023/04/07 03:29:21;;;;;;;5.53;5.05;;;;;;;6.10;100.00;98391.47;4193541;28;20677;-47
2023/04/07 03:31:24;;;;;;;5.95;5.47;;;;;;;6.12;100.00;98383.91;4167674;28;20260;-49
2023/04/07 03:33:26;;;;;;;6.47;5.97;;;;;;;6.04;100.00;98387.75;4169463;28;20212;-47
2023/04/07 03:35:27;;;;;;;5.75;5.25;;;;;;;5.98;100.00;98382.41;4166309;28;20212;-47
2023/04/07 03:37:29;;;;;;;6.18;5.65;;;;;;;5.94;100.00;98392.03;4175259;28;20228;-46
2023/04/07 03:39:31;;;;;;;6.47;5.88;;;;;;;5.88;100.00;98391.06;4166491;28;20209;-46
2023/04/07 03:41:32;;;;;;;6.95;6.32;;;;;;;5.79;100.00;98380.66;4168983;28;20211;-47
2023/04/07 03:43:34;;;;;;;7.07;5.80;;;;;;;5.46;100.00;98367.41;4171323;28;20210;-47
2023/04/07 03:45:36;;;;;;;7.55;6.03;;;;;;;5.66;100.00;98376.19;4202191;28;20206;-47
2023/04/07 03:47:38;;;;;;;6.57;6.03;;;;;;;5.75;100.00;98382.19;4167809;28;20255;-47
2023/04/07 03:49:40;;;;;;;6.20;5.70;;;;;;;5.62;100.00;98385.03;4193770;28;20204;-47
2023/04/07 03:51:42;;;;;;;6.40;5.93;;;;;;;5.59;100.00;98382.72;4170699;28;20343;-47
2023/04/07 03:53:43;;;;;;;6.53;5.82;;;;;;;5.57;100.00;98379.41;4176223;28;20204;-47
2023/04/07 03:55:46;;;;;;;4.85;4.55;;;;;;;5.71;100.00;98375.53;4202208;28;20549;-46
2023/04/07 03:57:47;;;;;;;6.15;5.65;;;;;;;5.53;100.00;98373.59;4176180;28;20211;-47
2023/04/07 03:59:50;;;;;;;7.13;6.32;;;;;;;5.34;100.00;98373.75;4176685;28;20290;-47
2023/04/07 04:01:51;;;;;;;7.60;6.28;;;;;;;5.30;100.00;98367.94;4176334;28;20657;-47
2023/04/07 04:03:53;;;;;;;6.68;6.18;;;;;;;5.42;100.00;98371.59;4176951;28;20212;-47
2023/04/07 04:05:55;;;;;;;7.40;6.72;;;;;;;5.31;100.00;98382.34;4158898;28;20209;-47
2023/04/07 04:07:57;;;;;;;7.15;6.60;;;;;;;5.27;100.00;98381.09;4176590;28;20733;-47
2023/04/07 04:09:59;;;;;;;5.85;5.35;;;;;;;5.30;100.00;98377.97;4186651;28;20291;-49
2023/04/07 04:12:01;;;;;;;6.18;5.68;;;;;;;5.32;100.00;98381.28;4176437;28;20219;-47
2023/04/07 04:14:02;;;;;;;5.95;5.38;;;;;;;5.34;100.00;98384.59;4175985;28;20246;-48
2023/04/07 04:16:05;;;;;;;7.45;6.95;;;;;;;5.37;100.00;98378.75;4199252;28;20257;-47
2023/04/07 04:18:07;;;;;;;6.75;6.25;;;;;;;5.37;100.00;98381.47;4152914;28;20775;-47
2023/04/07 04:20:09;;;;;;;5.03;4.63;;;;;;;5.31;100.00;98379.63;4170945;28;20216;-48
2023/04/07 04:22:11;;;;;;;5.60;5.20;;;;;;;5.27;100.00;98375.69;4176409;28;20240;-47
2023/04/07 04:24:13;;;;;;;5.70;5.20;;;;;;;5.24;100.00;98392.41;4192910;28;20208;-47
2023/04/07 04:26:15;;;;;;;5.90;5.40;;;;;;;5.23;100.00;98394.28;4174184;28;20253;-47
2023/04/07 04:28:16;;;;;;;6.25;5.75;;;;;;;5.21;100.00;98395.53;4166795;28;20308;-47
2023/04/07 04:30:18;;;;;;;6.60;6.00;;;;;;;5.26;100.00;98401.16;4168568;28;20573;-47
2023/04/07 04:32:20;;;;;;;6.30;5.80;;;;;;;5.23;100.00;98409.72;4166119;28;20722;-49
2023/04/07 04:34:22;;;;;;;5.72;5.15;;;;;;;5.19;100.00;98408.50;4166428;28;20215;-47
2023/04/07 04:36:23;;;;;;;6.05;5.55;;;;;;;5.26;100.00;98403.84;4176483;28;20271;-47
2023/04/07 04:38:25;;;;;;;5.45;4.97;;;;;;;5.31;100.00;98409.47;4176824;28;20204;-48
2023/04/07 04:40:27;;;;;;;5.78;5.38;;;;;;;5.20;100.00;98400.16;4159710;28;20245;-47
2023/04/07 04:42:30;;;;;;;6.15;5.65;;;;;;;5.19;100.00;98408.50;4175829;28;20547;-47
2023/04/07 04:44:32;;;;;;;6.07;5.57;;;;;;;5.27;100.00;98408.22;4175783;28;20589;-47
2023/04/07 04:46:33;;;;;;;7.80;6.10;;;;;;;5.23;100.00;98415.16;4187178;28;21014;-47
2023/04/07 04:48:38;;;;;;;13.65;7.18;;;;;;;5.35;100.00;98414.22;4179403;28;20254;-47
2023/04/07 04:50:41;;;;;;;6.80;6.30;;;;;;;5.16;100.00;98403.53;4170612;28;20592;-47
2023/04/07 04:52:43;;;;;;;6.80;6.30;;;;;;;5.29;100.00;98398.00;4176058;28;20707;-47
2023/04/07 04:54:45;;;;;;;7.07;6.57;;;;;;;5.27;100.00;98402.81;4155952;28;20312;-47
2023/04/07 04:56:49;;;;;;;6.90;6.40;;;;;;;5.13;100.00;98409.38;4173966;28;20314;-47
2023/04/07 04:58:51;;;;;;;7.70;5.60;;;;;;;5.29;100.00;98408.84;4161605;28;20212;-47
2023/04/07 05:00:57;;;;;;;7.00;6.45;;;;;;;4.90;100.00;98403.69;4169980;28;20247;-47
2023/04/07 05:02:59;;;;;;;7.45;6.85;;;;;;;4.94;100.00;98396.75;4172037;28;20791;-48
2023/04/07 05:05:01;;;;;;;7.00;6.43;;;;;;;4.91;100.00;98399.91;4166308;28;20204;-47
2023/04/07 05:07:03;;;;;;;6.38;5.88;;;;;;;5.00;100.00;98412.16;4168717;28;20233;-47
2023/04/07 05:09:05;;;;;;;6.90;6.35;;;;;;;5.10;100.00;98415.25;4174325;28;20212;-47
2023/04/07 05:11:07;;;;;;;7.07;6.47;;;;;;;5.08;100.00;98406.47;4201604;28;20672;-47
2023/04/07 05:13:08;;;;;;;6.53;5.97;;;;;;;5.14;100.00;98411.03;4188149;28;20676;-47
2023/04/07 05:15:10;;;;;;;6.47;5.97;;;;;;;5.23;100.00;98409.72;4155536;28;20248;-47
2023/04/07 05:17:12;;;;;;;6.60;6.07;;;;;;;5.25;100.00;98407.63;4185459;28;20267;-47
2023/04/07 05:19:14;;;;;;;7.30;6.07;;;;;;;5.27;100.00;98405.50;4171243;28;20247;-47
2023/04/07 05:21:16;;;;;;;6.80;6.30;;;;;;;5.27;100.00;98408.22;4194116;28;20215;-47
2023/04/07 05:23:17;;;;;;;7.30;6.70;;;;;;;5.27;100.00;98395.50;4189762;28;20737;-47
2023/04/07 05:25:19;;;;;;;8.25;6.28;;;;;;;5.34;100.00;98400.88;4168265;28;20697;-47
2023/04/07 05:27:21;;;;;;;6.95;5.50;;;;;;;5.35;100.00;98391.72;4169074;28;20224;-48
2023/04/07 05:29:23;;;;;;;7.05;6.55;;;;;;;5.39;100.00;98398.34;4175431;28;20306;-47
2023/04/07 05:31:24;;;;;;;6.55;6.05;;;;;;;5.47;100.00;98389.91;4171649;28;20299;-47
2023/04/07 05:33:26;;;;;;;6.45;5.95;;;;;;;5.48;100.00;98391.56;4172798;28;20246;-48
2023/04/07 05:35:28;;;;;;;7.03;6.53;;;;;;;5.45;100.00;98386.59;4156762;28;20270;-48
2023/04/07 05:37:30;;;;;;;7.03;6.53;;;;;;;5.49;100.00;98387.84;4169714;28;20232;-47
2023/04/07 05:39:32;;;;;;;8.73;8.02;;;;;;;5.41;100.00;98388.09;4184442;28;20208;-47
2023/04/07 05:41:33;;;;;;;8.15;7.55;;;;;;;5.33;100.00;98391.91;4170890;28;20569;-47
2023/04/07 05:43:35;;;;;;;9.20;8.52;;;;;;;5.43;100.00;98383.28;4154901;28;20304;-47
2023/04/07 05:45:37;;;;;;;10.35;8.73;;;;;;;5.35;100.00;98394.41;4186902;28;21785;-47
2023/04/07 05:47:39;;;;;;;9.05;8.30;;;;;;;5.46;100.00;98393.69;4185304;28;20223;-48
2023/04/07 05:49:44;;;;;;;8.35;7.57;;;;;;;5.56;100.00;98394.84;4205592;28;20335;-47
2023/04/07 05:51:46;;;;;;;9.40;8.60;;;;;;;5.38;100.00;98391.25;4161859;28;20209;-47
2023/04/07 05:53:49;;;;;;;8.85;8.15;;;;;;;5.51;100.00;98397.41;4163049;28;20590;-47
2023/04/07 05:55:51;;;;;;;9.02;8.32;;;;;;;5.52;100.00;98403.66;4173265;28;20209;-48
2023/04/07 05:57:53;;;;;;;9.00;8.10;;;;;;;5.52;100.00;98398.25;4172156;28;20287;-48
2023/04/07 05:59:55;;;;;;;9.73;8.93;;;;;;;5.52;100.00;98409.94;4172757;28;20697;-47
2023/04/07 06:01:57;;;;;;;9.45;8.65;;;;;;;5.44;100.00;98406.66;4171091;28;20291;-47
2023/04/07 06:04:00;;;;;;;9.88;9.07;;;;;;;5.40;100.00;98406.25;4161904;28;20586;-48
2023/04/07 06:06:02;;;;;;;9.20;8.38;;;;;;;5.46;100.00;98407.25;4170959;28;20232;-48
2023/04/07 06:08:03;;;;;;;9.25;8.45;;;;;;;5.51;100.00;98412.84;4170822;28;20291;-47
2023/04/07 06:10:06;;;;;;;10.15;9.35;;;;;;;5.57;100.00;98406.56;4186017;28;20273;-47
2023/04/07 06:12:11;;;;;;;10.07;9.07;;;;;;;5.67;100.00;98412.31;4160565;28;20229;-47
2023/04/07 06:14:13;;;;;;;10.50;9.70;;;;;;;5.79;100.00;98407.81;4169258;28;20830;-47
2023/04/07 06:16:14;;;;;;;10.70;9.65;;;;;;;5.68;100.00;98408.53;4168219;28;20335;-48
2023/04/07 06:18:19;;;;;;;9.73;9.02;;;;;;;5.68;100.00;98419.38;4199986;28;20207;-47
2023/04/07 06:20:21;;;;;;;10.30;9.48;;;;;;;5.63;100.00;98421.94;4169265;28;20567;-47
2023/04/07 06:22:23;;;;;;;10.10;9.20;;;;;;;5.67;100.00;98423.16;4187045;28;20199;-48
2023/04/07 06:24:25;;;;;;;10.25;9.45;;;;;;;5.73;100.00;98422.28;4177743;28;20306;-48
2023/04/07 06:26:27;;;;;;;12.35;10.38;;;;;;;5.70;100.00;98422.72;4172634;28;20341;-47
2023/04/07 06:28:29;;;;;;;12.15;11.15;;;;;;;5.72;100.00;98423.31;4154694;28;20763;-48
2023/04/07 06:30:31;;;;;;;13.05;11.95;;;;;;;5.71;100.00;98427.09;4176977;28;20240;-48
2023/04/07 06:32:33;;;;;;;11.02;10.23;;;;;;;5.72;100.00;98426.88;4200306;28;20231;-47
2023/04/07 06:34:35;;;;;;;10.10;9.30;;;;;;;5.77;100.00;98431.66;4169762;28;20454;-47
2023/04/07 06:36:36;;;;;;;10.27;9.38;;;;;;;5.85;100.00;98426.81;4167561;28;20563;-47
2023/04/07 06:38:38;;;;;;;11.27;10.00;;;;;;;5.86;100.00;98425.75;4177321;28;20214;-48
2023/04/07 06:40:40;;;;;;;9.27;8.45;;;;;;;5.93;100.00;98429.22;4153499;28;20220;-47
2023/04/07 06:42:42;;;;;;;11.25;9.18;;;;;;;5.90;100.00;98428.84;4169487;28;20689;-47
2023/04/07 06:44:44;;;;;;;11.15;9.70;;;;;;;5.99;100.00;98432.94;4174010;28;20201;-46
2023/04/07 06:46:52;;;;;;;10.35;9.55;;;;;;;6.11;100.00;98425.72;4184358;28;20230;-46
2023/04/07 06:48:53;;;;;;;10.15;9.35;;;;;;;6.18;100.00;98421.06;4186929;28;20758;-46
2023/04/07 06:50:55;;;;;;;10.13;9.38;;;;;;;6.22;100.00;98417.66;4167993;28;20750;-46
2023/04/07 06:52:57;;;;;;;8.38;7.68;;;;;;;6.27;100.00;98425.97;4171972;28;20228;-46
2023/04/07 06:54:58;;;;;;;9.68;8.98;;;;;;;6.34;100.00;98425.88;4184165;28;20203;-46
2023/04/07 06:57:00;;;;;;;9.20;8.35;;;;;;;6.42;100.00;98422.91;4169786;28;20263;-46
2023/04/07 06:59:02;;;;;;;10.88;9.98;;;;;;;6.39;100.00;98423.31;4170082;28;20299;-46
2023/04/07 07:01:05;;;;;;;10.25;9.55;;;;;;;6.56;100.00;98429.84;4176922;28;20215;-46
2023/04/07 07:03:06;;;;;;;9.55;8.85;;;;;;;6.62;100.00;98424.31;4168849;28;20243;-47
2023/04/07 07:05:10;;;;;;;8.88;8.18;;;;;;;6.73;100.00;98429.00;4168508;28;20295;-46
2023/04/07 07:07:12;;;;;;;10.73;9.82;;;;;;;6.85;100.00;98432.63;4203318;28;20599;-46
2023/04/07 07:09:13;;;;;;;10.13;9.32;;;;;;;6.91;100.00;98433.56;4177382;28;20243;-46
2023/04/07 07:11:15;;;;;;;9.80;8.70;;;;;;;6.93;100.00;98436.88;4186913;28;20215;-47
2023/04/07 07:13:17;;;;;;;10.38;9.50;;;;;;;7.05;100.00;98432.34;4191988;28;20227;-46
2023/04/07 07:15:19;;;;;;;10.45;9.65;;;;;;;7.12;100.00;98435.81;4165864;28;20208;-46
2023/04/07 07:17:21;;;;;;;11.80;10.77;;;;;;;6.95;100.00;98434.78;4176701;28;20293;-47
2023/04/07 07:19:23;;;;;;;10.80;10.00;;;;;;;6.92;100.00;98435.22;4168381;28;20236;-47
2023/04/07 07:21:25;;;;;;;11.10;10.15;;;;;;;7.07;100.00;98444.66;4176030;28;20238;-46
2023/04/07 07:23:27;;;;;;;10.35;9.55;;;;;;;7.13;100.00;98443.75;4153457;28;20259;-46
2023/04/07 07:25:29;;;;;;;10.55;9.75;;;;;;;7.18;100.00;98440.31;4170044;28;20251;-46
2023/04/07 07:27:33;;;;;;;11.38;10.48;;;;;;;7.33;100.00;98444.28;4168114;28;20228;-47
2023/04/07 07:29:35;;;;;;;11.68;10.38;;;;;;;7.38;100.00;98440.88;4168508;28;20212;-46
2023/04/07 07:31:36;;;;;;;12.25;10.48;;;;;;;7.42;100.00;98442.09;4168975;28;20869;-46
2023/04/07 07:33:40;;;;;;;11.70;10.70;;;;;;;7.49;100.00;98453.72;4193395;28;20227;-46
2023/04/07 07:35:42;;;;;;;12.95;11.68;;;;;;;7.54;100.00;98451.09;4167695;28;20247;-46
2023/04/07 07:37:43;;;;;;;12.13;11.10;;;;;;;7.68;100.00;98447.94;4160181;28;20209;-47
2023/04/07 07:39:45;;;;;;;11.95;10.75;;;;;;;7.75;100.00;98445.13;4174317;28;20222;-47
2023/04/07 07:41:46;;;;;;;11.15;10.05;;;;;;;7.77;100.00;98451.16;4170500;28;20207;-46
2023/04/07 07:43:48;;;;;;;12.45;11.23;;;;;;;7.90;100.00;98450.97;4152822;28;20229;-46
2023/04/07 07:45:50;;;;;;;11.27;10.27;;;;;;;8.03;100.00;98448.00;4168184;28;20574;-46
2023/04/07 07:47:52;;;;;;;10.13;9.32;;;;;;;7.97;100.00;98457.13;4177017;28;20302;-47
2023/04/07 07:49:54;;;;;;;13.27;12.05;;;;;;;8.30;100.00;98454.69;4166624;28;20209;-46
2023/04/07 07:51:56;;;;;;;17.80;16.10;;;;;;;8.50;100.00;98453.25;4173542;28;20214;-46
2023/04/07 07:53:58;;;;;;;17.88;16.17;;;;;;;8.72;100.00;98461.66;4176184;28;20224;-46
2023/04/07 07:56:00;;;;;;;14.15;12.70;;;;;;;8.73;100.00;98457.84;4169914;28;20221;-46
2023/04/07 07:58:02;;;;;;;12.95;11.75;;;;;;;8.92;100.00;98462.09;4159628;28;20220;-46
2023/04/07 08:00:05;;;;;;;12.25;11.32;;;;;;;9.08;100.00;98461.34;4156413;28;20295;-46
2023/04/07 08:02:07;;;;;;;13.38;12.00;;;;;;;9.18;100.00;98461.53;4176237;28;20239;-46
2023/04/07 08:04:09;;;;;;;14.27;12.20;;;;;;;9.30;100.00;98462.34;4150984;28;20209;-47
2023/04/07 08:06:11;;;;;;;12.45;11.27;;;;;;;9.35;100.00;98462.44;4168782;28;20824;-46
2023/04/07 08:08:13;;;;;;;10.35;9.38;;;;;;;9.17;100.00;98471.66;4175688;28;20204;-46
2023/04/07 08:10:15;;;;;;;10.10;9.30;;;;;;;8.99;100.00;98468.22;4170961;28;20291;-46
2023/04/07 08:12:17;;;;;;;10.02;9.18;;;;;;;9.04;100.00;98471.06;4166314;28;20723;-46
2023/04/07 08:14:18;;;;;;;10.77;9.88;;;;;;;8.97;100.00;98470.38;4169641;28;20603;-47
2023/04/07 08:16:23;;;;;;;10.25;9.35;;;;;;;8.90;100.00;98469.69;4173518;28;20246;-46
2023/04/07 08:18:28;;;;;;;10.77;9.77;;;;;;;8.62;100.00;98472.34;4175107;28;21708;-47
2023/04/07 08:20:30;;;;;;;17.20;12.40;;;;;;;8.78;100.00;98471.59;4186898;28;20243;-46
2023/04/07 08:22:32;;;;;;;12.23;10.60;;;;;;;8.91;100.00;98476.81;4178616;28;20200;-46
2023/04/07 08:24:34;;;;;;;12.85;11.75;;;;;;;8.82;100.00;98478.25;4155842;28;20705;-46
2023/04/07 08:26:36;;;;;;;11.02;10.02;;;;;;;8.85;100.00;98477.75;4177754;28;20232;-47
2023/04/07 08:28:38;;;;;;;16.58;10.38;;;;;;;8.93;100.00;98485.56;4163251;28;20833;-47
2023/04/07 08:30:40;;;;;;;12.27;11.07;;;;;;;8.78;100.00;98487.97;4162346;28;20229;-46
2023/04/07 08:32:44;;;;;;;10.93;9.93;;;;;;;8.92;100.00;98490.22;4169409;28;20223;-46
2023/04/07 08:34:46;;;;;;;9.77;8.98;;;;;;;8.94;100.00;98487.25;4170326;28;20672;-46
2023/04/07 08:36:48;;;;;;;9.93;9.13;;;;;;;9.01;100.00;98488.75;4171926;28;20373;-46
2023/04/07 08:38:50;;;;;;;9.27;8.23;;;;;;;8.84;100.00;98490.59;4170024;28;20308;-46
2023/04/07 08:40:58;;;;;;;12.88;8.73;;;;;;;8.69;100.00;98490.22;4175766;28;20593;-48
2023/04/07 08:43:00;;;;;;;8.80;8.00;;;;;;;8.78;100.00;98488.81;4188587;28;20402;-47
2023/04/07 08:45:06;;;;;;;8.35;7.47;;;;;;;8.72;100.00;98497.09;4179102;28;20216;-46
2023/04/07 08:47:10;;;;;;;9.77;8.88;;;;;;;8.65;100.00;98505.44;4188447;28;20259;-46
2023/04/07 08:49:12;;;;;;;13.48;9.10;;;;;;;8.73;100.00;98506.94;4156975;28;20582;-49
2023/04/07 08:51:15;;;;;;;9.88;8.98;;;;;;;8.57;100.00;98513.13;4189291;28;20243;-46
2023/04/07 08:53:18;;;;;;;9.13;8.32;;;;;;;8.70;100.00;98501.97;4164234;28;20220;-46
2023/04/07 08:55:20;;;;;;;8.13;7.53;;;;;;;8.75;100.00;98510.28;4177012;28;20239;-47
2023/04/07 08:57:21;;;;;;;9.25;8.43;;;;;;;8.76;100.00;98506.50;4191073;28;20239;-48
2023/04/07 08:59:27;;;;;;;10.55;8.80;;;;;;;8.84;100.00;98503.38;4159655;28;20213;-46
2023/04/07 09:01:29;;;;;;;10.63;9.73;;;;;;;8.94;100.00;98503.63;4177471;28;20914;-46
2023/04/07 09:03:33;;;;;;;12.27;9.93;;;;;;;8.92;100.00;98509.31;4191591;28;20236;-47
2023/04/07 09:05:35;;;;;;;11.18;10.07;;;;;;;8.94;100.00;98509.09;4170257;28;20211;-46
2023/04/07 09:07:39;;;;;;;13.18;12.05;;;;;;;8.99;100.00;98517.34;4158478;28;20323;-47
2023/04/07 09:09:41;;;;;;;11.68;10.68;;;;;;;8.95;100.00;98510.75;4170846;28;20242;-49
2023/04/07 09:11:42;;;;;;;11.93;10.73;;;;;;;8.86;100.00;98517.59;4178071;28;20247;-47
2023/04/07 09:13:44;;;;;;;14.43;13.13;;;;;;;8.86;100.00;98517.59;4162847;28;20263;-47
2023/04/07 09:15:47;;;;;;;12.60;11.45;;;;;;;8.91;100.00;98517.72;4178335;28;20715;-48
2023/04/07 09:17:48;;;;;;;13.23;12.13;;;;;;;8.99;100.00;98528.28;4174556;28;20228;-47
2023/04/07 09:19:52;;;;;;;12.20;11.20;;;;;;;9.01;100.00;98526.16;4167632;28;20208;-46
2023/04/07 09:21:54;;;;;;;10.43;9.52;;;;;;;8.88;100.00;98516.31;4172871;28;20251;-47
2023/04/07 09:23:55;;;;;;;10.52;9.70;;;;;;;8.82;100.00;98532.81;4178541;28;20200;-47
2023/04/07 09:25:58;;;;;;;10.13;9.23;;;;;;;8.90;100.00;98525.06;4169788;28;20204;-47
2023/04/07 09:28:04;;;;;;;8.63;7.82;;;;;;;8.80;100.00;98534.94;4169482;28;20257;-47
2023/04/07 09:30:16;;;;;;;9.45;8.65;;;;;;;8.71;100.00;98530.91;4178789;28;20235;-47
2023/04/07 09:32:40;;;;;;;10.88;9.23;;;;;;;8.78;100.00;98527.00;4177755;28;20262;-47
2023/04/07 09:34:42;;;;;;;16.48;9.68;;;;;;;8.85;100.00;98537.78;4170521;28;20273;-47
2023/04/07 09:36:43;;;;;;;10.85;9.90;;;;;;;8.72;100.00;98527.13;4169001;28;20233;-46
2023/04/07 09:38:45;;;;;;;11.35;10.35;;;;;;;8.52;100.00;98530.22;4186468;28;20297;-47